sensor_id;sensor_type;location;lat;lon;timestamp;P1;durP1;ratioP1;P2;durP2;ratioP2
3997;SDS011;61314;53.444;9.902;2023-04-06T00:00:09;4.32;;;3.70;;
3997;SDS011;61314;53.444;9.902;2023-04-06T00:02:36;5.63;;;3.90;;
3997;SDS011;61314;53.444;9.902;2023-04-06T00:05:04;7.70;;;3.60;;
3997;SDS011;61314;53.444;9.902;2023-04-06T00:07:31;4.75;;;4.25;;
3997;SDS011;61314;53.444;9.902;2023-04-06T00:09:59;3.83;;;3.42;;
3997;SDS011;61314;53.444;9.902;2023-04-06T00:12:26;3.72;;;3.40;;
3997;SDS011;61314;53.444;9.902;2023-04-06T00:14:53;5.30;;;4.35;;
3997;SDS011;61314;53.444;9.902;2023-04-06T00:17:20;5.38;;;4.00;;
3997;SDS011;61314;53.444;9.902;2023-04-06T00:19:48;5.35;;;4.15;;
3997;SDS011;61314;53.444;9.902;2023-04-06T00:22:15;7.78;;;4.30;;
3997;SDS011;61314;53.444;9.902;2023-04-06T00:24:42;9.25;;;4.10;;
3997;SDS011;61314;53.444;9.902;2023-04-06T00:27:09;6.65;;;5.03;;
3997;SDS011;61314;53.444;9.902;2023-04-06T00:29:36;8.00;;;5.70;;
3997;SDS011;61314;53.444;9.902;2023-04-06T00:32:02;15.18;;;7.60;;
3997;SDS011;61314;53.444;9.902;2023-04-06T00:34:29;11.80;;;7.03;;
3997;SDS011;61314;53.444;9.902;2023-04-06T00:36:56;15.30;;;8.23;;
3997;SDS011;61314;53.444;9.902;2023-04-06T00:39:23;12.93;;;7.85;;
3997;SDS011;61314;53.444;9.902;2023-04-06T00:41:52;11.15;;;6.85;;
3997;SDS011;61314;53.444;9.902;2023-04-06T00:44:19;12.30;;;6.25;;
3997;SDS011;61314;53.444;9.902;2023-04-06T00:46:46;8.68;;;5.57;;
3997;SDS011;61314;53.444;9.902;2023-04-06T00:49:13;9.90;;;5.90;;
3997;SDS011;61314;53.444;9.902;2023-04-06T00:51:41;6.32;;;5.55;;
3997;SDS011;61314;53.444;9.902;2023-04-06T00:54:08;8.93;;;5.60;;
3997;SDS011;61314;53.444;9.902;2023-04-06T00:56:35;7.25;;;5.60;;
3997;SDS011;61314;53.444;9.902;2023-04-06T00:59:02;7.82;;;5.13;;
3997;SDS011;61314;53.444;9.902;2023-04-06T01:01:29;8.77;;;5.95;;
3997;SDS011;61314;53.444;9.902;2023-04-06T01:03:58;12.07;;;5.05;;
3997;SDS011;61314;53.444;9.902;2023-04-06T01:06:25;10.65;;;6.20;;
3997;SDS011;61314;53.444;9.902;2023-04-06T01:08:52;8.90;;;5.00;;
3997;SDS011;61314;53.444;9.902;2023-04-06T01:11:19;8.88;;;5.18;;
3997;SDS011;61314;53.444;9.902;2023-04-06T01:13:46;9.27;;;5.35;;
3997;SDS011;61314;53.444;9.902;2023-04-06T01:16:13;5.93;;;4.90;;
3997;SDS011;61314;53.444;9.902;2023-04-06T01:18:41;7.80;;;4.70;;
3997;SDS011;61314;53.444;9.902;2023-04-06T01:21:08;6.18;;;4.90;;
3997;SDS011;61314;53.444;9.902;2023-04-06T01:23:42;5.13;;;4.70;;
3997;SDS011;61314;53.444;9.902;2023-04-06T01:26:09;7.00;;;5.10;;
3997;SDS011;61314;53.444;9.902;2023-04-06T01:28:36;8.48;;;5.40;;
3997;SDS011;61314;53.444;9.902;2023-04-06T01:31:04;10.88;;;5.05;;
3997;SDS011;61314;53.444;9.902;2023-04-06T01:33:31;5.50;;;4.82;;
3997;SDS011;61314;53.444;9.902;2023-04-06T01:35:58;5.00;;;4.50;;
3997;SDS011;61314;53.444;9.902;2023-04-06T01:38:26;4.88;;;3.97;;
3997;SDS011;61314;53.444;9.902;2023-04-06T01:40:53;9.15;;;4.90;;
3997;SDS011;61314;53.444;9.902;2023-04-06T01:43:21;6.28;;;4.95;;
3997;SDS011;61314;53.444;9.902;2023-04-06T01:45:48;7.43;;;4.97;;
3997;SDS011;61314;53.444;9.902;2023-04-06T01:48:16;6.22;;;4.50;;
3997;SDS011;61314;53.444;9.902;2023-04-06T01:50:43;6.40;;;5.13;;
3997;SDS011;61314;53.444;9.902;2023-04-06T01:53:10;8.20;;;5.40;;
3997;SDS011;61314;53.444;9.902;2023-04-06T01:55:37;6.38;;;5.15;;
3997;SDS011;61314;53.444;9.902;2023-04-06T01:58:04;6.53;;;5.35;;
3997;SDS011;61314;53.444;9.902;2023-04-06T02:00:31;5.38;;;4.72;;
3997;SDS011;61314;53.444;9.902;2023-04-06T02:02:58;9.40;;;5.07;;
3997;SDS011;61314;53.444;9.902;2023-04-06T02:05:26;6.97;;;5.72;;
3997;SDS011;61314;53.444;9.902;2023-04-06T02:07:53;9.10;;;7.75;;
3997;SDS011;61314;53.444;9.902;2023-04-06T02:10:20;8.88;;;5.65;;
3997;SDS011;61314;53.444;9.902;2023-04-06T02:12:47;6.93;;;5.20;;
3997;SDS011;61314;53.444;9.902;2023-04-06T02:15:14;7.40;;;5.85;;
3997;SDS011;61314;53.444;9.902;2023-04-06T02:17:41;7.60;;;4.95;;
3997;SDS011;61314;53.444;9.902;2023-04-06T02:20:09;6.80;;;4.65;;
3997;SDS011;61314;53.444;9.902;2023-04-06T02:22:36;9.18;;;5.63;;
3997;SDS011;61314;53.444;9.902;2023-04-06T02:25:03;6.82;;;5.57;;
3997;SDS011;61314;53.444;9.902;2023-04-06T02:27:30;8.30;;;5.47;;
3997;SDS011;61314;53.444;9.902;2023-04-06T02:29:57;7.32;;;5.50;;
3997;SDS011;61314;53.444;9.902;2023-04-06T02:32:24;11.30;;;6.35;;
3997;SDS011;61314;53.444;9.902;2023-04-06T02:34:51;7.00;;;6.30;;
3997;SDS011;61314;53.444;9.902;2023-04-06T02:37:18;11.43;;;6.38;;
3997;SDS011;61314;53.444;9.902;2023-04-06T02:39:46;6.93;;;5.70;;
3997;SDS011;61314;53.444;9.902;2023-04-06T02:42:13;13.98;;;6.57;;
3997;SDS011;61314;53.444;9.902;2023-04-06T02:44:41;7.45;;;5.28;;
3997;SDS011;61314;53.444;9.902;2023-04-06T02:47:08;8.80;;;6.68;;
3997;SDS011;61314;53.444;9.902;2023-04-06T02:49:35;7.75;;;6.32;;
3997;SDS011;61314;53.444;9.902;2023-04-06T02:52:02;7.15;;;6.32;;
3997;SDS011;61314;53.444;9.902;2023-04-06T02:54:29;7.18;;;5.60;;
3997;SDS011;61314;53.444;9.902;2023-04-06T02:56:56;8.18;;;6.15;;
3997;SDS011;61314;53.444;9.902;2023-04-06T02:59:23;9.38;;;6.00;;
3997;SDS011;61314;53.444;9.902;2023-04-06T03:01:51;8.45;;;7.10;;
3997;SDS011;61314;53.444;9.902;2023-04-06T03:04:18;12.55;;;6.30;;
3997;SDS011;61314;53.444;9.902;2023-04-06T03:06:47;7.85;;;6.82;;
3997;SDS011;61314;53.444;9.902;2023-04-06T03:09:14;6.70;;;6.10;;
3997;SDS011;61314;53.444;9.902;2023-04-06T03:11:41;11.30;;;7.10;;
3997;SDS011;61314;53.444;9.902;2023-04-06T03:14:08;11.43;;;7.15;;
3997;SDS011;61314;53.444;9.902;2023-04-06T03:16:35;11.05;;;6.28;;
3997;SDS011;61314;53.444;9.902;2023-04-06T03:19:02;7.43;;;6.65;;
3997;SDS011;61314;53.444;9.902;2023-04-06T03:21:29;9.60;;;7.00;;
3997;SDS011;61314;53.444;9.902;2023-04-06T03:23:56;10.52;;;6.70;;
3997;SDS011;61314;53.444;9.902;2023-04-06T03:26:23;11.27;;;8.02;;
3997;SDS011;61314;53.444;9.902;2023-04-06T03:28:50;9.18;;;7.60;;
3997;SDS011;61314;53.444;9.902;2023-04-06T03:31:17;11.88;;;8.35;;
3997;SDS011;61314;53.444;9.902;2023-04-06T03:33:44;8.75;;;7.80;;
3997;SDS011;61314;53.444;9.902;2023-04-06T03:36:12;11.98;;;8.60;;
3997;SDS011;61314;53.444;9.902;2023-04-06T03:38:39;16.65;;;10.85;;
3997;SDS011;61314;53.444;9.902;2023-04-06T03:41:06;12.98;;;11.35;;
3997;SDS011;61314;53.444;9.902;2023-04-06T03:43:33;15.20;;;11.63;;
3997;SDS011;61314;53.444;9.902;2023-04-06T03:46:00;16.13;;;11.90;;
3997;SDS011;61314;53.444;9.902;2023-04-06T03:48:27;16.83;;;11.52;;
3997;SDS011;61314;53.444;9.902;2023-04-06T03:50:54;12.27;;;10.13;;
3997;SDS011;61314;53.444;9.902;2023-04-06T03:53:21;17.35;;;12.63;;
3997;SDS011;61314;53.444;9.902;2023-04-06T03:55:48;12.40;;;11.13;;
3997;SDS011;61314;53.444;9.902;2023-04-06T03:58:15;16.63;;;11.45;;
3997;SDS011;61314;53.444;9.902;2023-04-06T04:00:42;17.60;;;11.82;;
3997;SDS011;61314;53.444;9.902;2023-04-06T04:03:09;15.45;;;11.00;;
3997;SDS011;61314;53.444;9.902;2023-04-06T04:05:37;15.63;;;11.60;;
3997;SDS011;61314;53.444;9.902;2023-04-06T04:08:04;12.93;;;11.20;;
3997;SDS011;61314;53.444;9.902;2023-04-06T04:10:31;14.13;;;10.48;;
3997;SDS011;61314;53.444;9.902;2023-04-06T04:12:58;16.75;;;11.73;;
3997;SDS011;61314;53.444;9.902;2023-04-06T04:15:25;15.13;;;11.35;;
3997;SDS011;61314;53.444;9.902;2023-04-06T04:17:52;12.38;;;11.00;;
3997;SDS011;61314;53.444;9.902;2023-04-06T04:20:19;14.27;;;12.23;;
3997;SDS011;61314;53.444;9.902;2023-04-06T04:22:46;15.45;;;11.50;;
3997;SDS011;61314;53.444;9.902;2023-04-06T04:25:13;17.45;;;12.93;;
3997;SDS011;61314;53.444;9.902;2023-04-06T04:27:40;12.88;;;10.85;;
3997;SDS011;61314;53.444;9.902;2023-04-06T04:30:07;14.80;;;11.27;;
3997;SDS011;61314;53.444;9.902;2023-04-06T04:32:34;12.55;;;10.93;;
3997;SDS011;61314;53.444;9.902;2023-04-06T04:35:02;13.23;;;11.77;;
3997;SDS011;61314;53.444;9.902;2023-04-06T04:37:29;15.93;;;10.90;;
3997;SDS011;61314;53.444;9.902;2023-04-06T04:39:56;13.73;;;11.70;;
3997;SDS011;61314;53.444;9.902;2023-04-06T04:42:23;16.48;;;12.98;;
3997;SDS011;61314;53.444;9.902;2023-04-06T04:44:50;18.17;;;12.20;;
3997;SDS011;61314;53.444;9.902;2023-04-06T04:47:17;16.92;;;11.15;;
3997;SDS011;61314;53.444;9.902;2023-04-06T04:49:44;16.27;;;12.27;;
3997;SDS011;61314;53.444;9.902;2023-04-06T04:52:11;15.65;;;11.80;;
3997;SDS011;61314;53.444;9.902;2023-04-06T04:54:38;14.50;;;12.40;;
3997;SDS011;61314;53.444;9.902;2023-04-06T04:57:07;12.52;;;11.05;;
3997;SDS011;61314;53.444;9.902;2023-04-06T04:59:34;15.40;;;12.15;;
3997;SDS011;61314;53.444;9.902;2023-04-06T05:02:01;17.23;;;12.88;;
3997;SDS011;61314;53.444;9.902;2023-04-06T05:04:29;16.50;;;12.48;;
3997;SDS011;61314;53.444;9.902;2023-04-06T05:07:05;17.73;;;13.55;;
3997;SDS011;61314;53.444;9.902;2023-04-06T05:09:32;18.15;;;15.00;;
3997;SDS011;61314;53.444;9.902;2023-04-06T05:12:00;16.98;;;13.25;;
3997;SDS011;61314;53.444;9.902;2023-04-06T05:14:27;16.10;;;13.77;;
3997;SDS011;61314;53.444;9.902;2023-04-06T05:16:54;21.17;;;13.88;;
3997;SDS011;61314;53.444;9.902;2023-04-06T05:19:21;14.52;;;13.00;;
3997;SDS011;61314;53.444;9.902;2023-04-06T05:21:48;17.55;;;13.10;;
3997;SDS011;61314;53.444;9.902;2023-04-06T05:24:15;21.45;;;14.30;;
3997;SDS011;61314;53.444;9.902;2023-04-06T05:26:42;14.32;;;12.50;;
3997;SDS011;61314;53.444;9.902;2023-04-06T05:29:10;15.30;;;11.75;;
3997;SDS011;61314;53.444;9.902;2023-04-06T05:31:37;18.80;;;12.55;;
3997;SDS011;61314;53.444;9.902;2023-04-06T05:34:04;14.82;;;11.15;;
3997;SDS011;61314;53.444;9.902;2023-04-06T05:36:31;14.50;;;10.77;;
3997;SDS011;61314;53.444;9.902;2023-04-06T05:38:59;13.05;;;11.40;;
3997;SDS011;61314;53.444;9.902;2023-04-06T05:41:26;18.67;;;12.02;;
3997;SDS011;61314;53.444;9.902;2023-04-06T05:43:53;17.27;;;11.93;;
3997;SDS011;61314;53.444;9.902;2023-04-06T05:46:19;19.73;;;11.80;;
3997;SDS011;61314;53.444;9.902;2023-04-06T05:48:47;19.17;;;12.02;;
3997;SDS011;61314;53.444;9.902;2023-04-06T05:51:14;15.52;;;11.07;;
3997;SDS011;61314;53.444;9.902;2023-04-06T05:53:40;18.10;;;11.52;;
3997;SDS011;61314;53.444;9.902;2023-04-06T05:56:07;15.68;;;12.20;;
3997;SDS011;61314;53.444;9.902;2023-04-06T05:58:34;13.73;;;10.32;;
3997;SDS011;61314;53.444;9.902;2023-04-06T06:01:01;15.93;;;11.05;;
3997;SDS011;61314;53.444;9.902;2023-04-06T06:03:29;19.48;;;10.35;;
3997;SDS011;61314;53.444;9.902;2023-04-06T06:06:03;11.82;;;9.27;;
3997;SDS011;61314;53.444;9.902;2023-04-06T06:08:31;12.52;;;9.30;;
3997;SDS011;61314;53.444;9.902;2023-04-06T06:10:58;17.85;;;9.38;;
3997;SDS011;61314;53.444;9.902;2023-04-06T06:13:24;15.77;;;11.13;;
3997;SDS011;61314;53.444;9.902;2023-04-06T06:15:52;21.50;;;13.70;;
3997;SDS011;61314;53.444;9.902;2023-04-06T06:18:19;46.53;;;22.75;;
3997;SDS011;61314;53.444;9.902;2023-04-06T06:20:46;40.45;;;24.02;;
3997;SDS011;61314;53.444;9.902;2023-04-06T06:23:13;38.45;;;23.75;;
3997;SDS011;61314;53.444;9.902;2023-04-06T06:25:41;33.17;;;21.48;;
3997;SDS011;61314;53.444;9.902;2023-04-06T06:28:08;32.88;;;20.83;;
3997;SDS011;61314;53.444;9.902;2023-04-06T06:30:35;38.35;;;20.77;;
3997;SDS011;61314;53.444;9.902;2023-04-06T06:33:02;31.48;;;19.00;;
3997;SDS011;61314;53.444;9.902;2023-04-06T06:35:29;20.70;;;16.10;;
3997;SDS011;61314;53.444;9.902;2023-04-06T06:37:56;30.13;;;18.85;;
3997;SDS011;61314;53.444;9.902;2023-04-06T06:40:23;40.22;;;21.77;;
3997;SDS011;61314;53.444;9.902;2023-04-06T06:42:50;28.63;;;15.23;;
3997;SDS011;61314;53.444;9.902;2023-04-06T06:45:17;11.13;;;9.82;;
3997;SDS011;61314;53.444;9.902;2023-04-06T06:47:44;11.93;;;9.95;;
3997;SDS011;61314;53.444;9.902;2023-04-06T06:50:12;15.15;;;9.77;;
3997;SDS011;61314;53.444;9.902;2023-04-06T06:52:39;16.92;;;9.13;;
3997;SDS011;61314;53.444;9.902;2023-04-06T06:55:07;10.23;;;9.15;;
3997;SDS011;61314;53.444;9.902;2023-04-06T06:57:35;13.00;;;10.10;;
3997;SDS011;61314;53.444;9.902;2023-04-06T07:00:02;19.13;;;12.20;;
3997;SDS011;61314;53.444;9.902;2023-04-06T07:02:31;20.45;;;12.70;;
3997;SDS011;61314;53.444;9.902;2023-04-06T07:04:58;15.07;;;11.02;;
3997;SDS011;61314;53.444;9.902;2023-04-06T07:07:25;9.80;;;8.00;;
3997;SDS011;61314;53.444;9.902;2023-04-06T07:09:52;10.50;;;9.02;;
3997;SDS011;61314;53.444;9.902;2023-04-06T07:12:19;11.38;;;10.18;;
3997;SDS011;61314;53.444;9.902;2023-04-06T07:14:46;11.70;;;8.25;;
3997;SDS011;61314;53.444;9.902;2023-04-06T07:17:13;11.05;;;7.97;;
3997;SDS011;61314;53.444;9.902;2023-04-06T07:19:40;16.63;;;8.80;;
3997;SDS011;61314;53.444;9.902;2023-04-06T07:22:07;8.38;;;7.45;;
3997;SDS011;61314;53.444;9.902;2023-04-06T07:24:34;15.48;;;7.95;;
3997;SDS011;61314;53.444;9.902;2023-04-06T07:27:02;24.02;;;10.02;;
3997;SDS011;61314;53.444;9.902;2023-04-06T07:29:29;12.35;;;7.82;;
3997;SDS011;61314;53.444;9.902;2023-04-06T07:31:56;14.63;;;8.65;;
3997;SDS011;61314;53.444;9.902;2023-04-06T07:34:23;10.02;;;7.43;;
3997;SDS011;61314;53.444;9.902;2023-04-06T07:36:50;9.60;;;7.38;;
3997;SDS011;61314;53.444;9.902;2023-04-06T07:39:18;8.75;;;7.85;;
3997;SDS011;61314;53.444;9.902;2023-04-06T07:41:46;13.65;;;8.07;;
3997;SDS011;61314;53.444;9.902;2023-04-06T07:44:13;10.13;;;7.55;;
3997;SDS011;61314;53.444;9.902;2023-04-06T07:46:40;10.95;;;8.13;;
3997;SDS011;61314;53.444;9.902;2023-04-06T07:49:07;10.00;;;7.22;;
3997;SDS011;61314;53.444;9.902;2023-04-06T07:51:37;12.30;;;7.38;;
3997;SDS011;61314;53.444;9.902;2023-04-06T07:54:04;12.35;;;6.78;;
3997;SDS011;61314;53.444;9.902;2023-04-06T07:56:32;8.48;;;7.00;;
3997;SDS011;61314;53.444;9.902;2023-04-06T07:58:59;11.95;;;8.25;;
3997;SDS011;61314;53.444;9.902;2023-04-06T08:01:27;10.98;;;8.10;;
3997;SDS011;61314;53.444;9.902;2023-04-06T08:03:54;7.95;;;6.75;;
3997;SDS011;61314;53.444;9.902;2023-04-06T08:06:21;12.30;;;7.10;;
3997;SDS011;61314;53.444;9.902;2023-04-06T08:08:49;11.20;;;7.78;;
3997;SDS011;61314;53.444;9.902;2023-04-06T08:11:16;14.52;;;7.50;;
3997;SDS011;61314;53.444;9.902;2023-04-06T08:13:43;15.82;;;7.82;;
3997;SDS011;61314;53.444;9.902;2023-04-06T08:16:10;10.10;;;6.80;;
3997;SDS011;61314;53.444;9.902;2023-04-06T08:18:37;7.97;;;6.72;;
3997;SDS011;61314;53.444;9.902;2023-04-06T08:21:04;11.43;;;6.93;;
3997;SDS011;61314;53.444;9.902;2023-04-06T08:23:31;7.63;;;6.85;;
3997;SDS011;61314;53.444;9.902;2023-04-06T08:25:58;10.32;;;6.93;;
3997;SDS011;61314;53.444;9.902;2023-04-06T08:28:25;13.25;;;7.38;;
3997;SDS011;61314;53.444;9.902;2023-04-06T08:30:52;9.48;;;6.90;;
3997;SDS011;61314;53.444;9.902;2023-04-06T08:33:19;17.48;;;8.05;;
3997;SDS011;61314;53.444;9.902;2023-04-06T08:35:46;8.00;;;6.47;;
3997;SDS011;61314;53.444;9.902;2023-04-06T08:38:13;10.15;;;7.03;;
3997;SDS011;61314;53.444;9.902;2023-04-06T08:40:40;11.40;;;7.10;;
3997;SDS011;61314;53.444;9.902;2023-04-06T08:43:11;10.63;;;7.18;;
3997;SDS011;61314;53.444;9.902;2023-04-06T08:45:40;7.95;;;6.15;;
3997;SDS011;61314;53.444;9.902;2023-04-06T08:48:07;10.52;;;6.60;;
3997;SDS011;61314;53.444;9.902;2023-04-06T08:50:35;7.00;;;6.20;;
3997;SDS011;61314;53.444;9.902;2023-04-06T08:53:02;7.13;;;6.40;;
3997;SDS011;61314;53.444;9.902;2023-04-06T08:55:29;5.07;;;4.55;;
3997;SDS011;61314;53.444;9.902;2023-04-06T08:57:57;5.93;;;4.93;;
3997;SDS011;61314;53.444;9.902;2023-04-06T09:00:25;7.55;;;4.85;;
3997;SDS011;61314;53.444;9.902;2023-04-06T09:02:53;6.47;;;4.72;;
3997;SDS011;61314;53.444;9.902;2023-04-06T09:05:21;4.60;;;4.18;;
3997;SDS011;61314;53.444;9.902;2023-04-06T09:07:48;6.40;;;4.68;;
3997;SDS011;61314;53.444;9.902;2023-04-06T09:10:15;5.55;;;4.30;;
3997;SDS011;61314;53.444;9.902;2023-04-06T09:12:43;5.30;;;4.70;;
3997;SDS011;61314;53.444;9.902;2023-04-06T09:15:20;10.02;;;4.05;;
3997;SDS011;61314;53.444;9.902;2023-04-06T09:17:50;4.60;;;4.20;;
3997;SDS011;61314;53.444;9.902;2023-04-06T09:20:26;4.40;;;4.00;;
3997;SDS011;61314;53.444;9.902;2023-04-06T09:22:54;4.60;;;4.18;;
3997;SDS011;61314;53.444;9.902;2023-04-06T09:25:23;4.90;;;4.35;;
3997;SDS011;61314;53.444;9.902;2023-04-06T09:28:01;5.13;;;4.43;;
3997;SDS011;61314;53.444;9.902;2023-04-06T09:30:28;5.32;;;4.00;;
3997;SDS011;61314;53.444;9.902;2023-04-06T09:32:56;14.30;;;4.10;;
3997;SDS011;61314;53.444;9.902;2023-04-06T09:35:23;9.70;;;4.90;;
3997;SDS011;61314;53.444;9.902;2023-04-06T09:37:53;5.95;;;4.88;;
3997;SDS011;61314;53.444;9.902;2023-04-06T09:40:21;6.53;;;4.63;;
3997;SDS011;61314;53.444;9.902;2023-04-06T09:42:49;5.45;;;4.13;;
3997;SDS011;61314;53.444;9.902;2023-04-06T09:45:18;7.60;;;4.00;;
3997;SDS011;61314;53.444;9.902;2023-04-06T09:47:46;4.90;;;3.80;;
3997;SDS011;61314;53.444;9.902;2023-04-06T09:50:14;8.00;;;5.00;;
3997;SDS011;61314;53.444;9.902;2023-04-06T09:52:46;5.13;;;4.20;;
3997;SDS011;61314;53.444;9.902;2023-04-06T09:55:17;4.73;;;4.23;;
3997;SDS011;61314;53.444;9.902;2023-04-06T09:57:50;5.03;;;4.20;;
3997;SDS011;61314;53.444;9.902;2023-04-06T10:00:20;8.70;;;4.27;;
3997;SDS011;61314;53.444;9.902;2023-04-06T10:08:11;5.53;;;4.00;;
3997;SDS011;61314;53.444;9.902;2023-04-06T10:10:39;14.63;;;4.77;;
3997;SDS011;61314;53.444;9.902;2023-04-06T10:13:06;6.77;;;4.37;;
3997;SDS011;61314;53.444;9.902;2023-04-06T10:15:33;8.03;;;4.40;;
3997;SDS011;61314;53.444;9.902;2023-04-06T10:18:00;5.90;;;4.37;;
3997;SDS011;61314;53.444;9.902;2023-04-06T10:20:31;5.73;;;4.13;;
3997;SDS011;61314;53.444;9.902;2023-04-06T10:23:17;5.13;;;4.60;;
3997;SDS011;61314;53.444;9.902;2023-04-06T10:25:57;5.53;;;5.00;;
3997;SDS011;61314;53.444;9.902;2023-04-06T10:28:24;5.63;;;5.00;;
3997;SDS011;61314;53.444;9.902;2023-04-06T10:30:58;5.37;;;4.70;;
3997;SDS011;61314;53.444;9.902;2023-04-06T10:33:25;6.40;;;5.57;;
3997;SDS011;61314;53.444;9.902;2023-04-06T10:35:52;5.97;;;5.10;;
3997;SDS011;61314;53.444;9.902;2023-04-06T10:38:21;5.67;;;5.13;;
3997;SDS011;61314;53.444;9.902;2023-04-06T10:41:09;7.40;;;5.20;;
3997;SDS011;61314;53.444;9.902;2023-04-06T10:43:37;8.50;;;5.53;;
3997;SDS011;61314;53.444;9.902;2023-04-06T10:46:04;10.03;;;5.40;;
3997;SDS011;61314;53.444;9.902;2023-04-06T10:48:44;7.00;;;4.60;;
3997;SDS011;61314;53.444;9.902;2023-04-06T10:51:13;7.70;;;5.20;;
3997;SDS011;61314;53.444;9.902;2023-04-06T10:53:44;8.47;;;5.40;;
3997;SDS011;61314;53.444;9.902;2023-04-06T10:56:15;8.03;;;5.87;;
3997;SDS011;61314;53.444;9.902;2023-04-06T10:58:46;9.57;;;6.10;;
3997;SDS011;61314;53.444;9.902;2023-04-06T11:01:16;5.87;;;5.10;;
3997;SDS011;61314;53.444;9.902;2023-04-06T11:06:11;6.80;;;5.70;;
3997;SDS011;61314;53.444;9.902;2023-04-06T11:08:44;9.13;;;6.30;;
3997;SDS011;61314;53.444;9.902;2023-04-06T11:11:11;5.33;;;4.83;;
3997;SDS011;61314;53.444;9.902;2023-04-06T11:13:42;7.60;;;5.60;;
3997;SDS011;61314;53.444;9.902;2023-04-06T11:16:17;11.73;;;6.23;;
3997;SDS011;61314;53.444;9.902;2023-04-06T11:18:55;8.10;;;5.60;;
3997;SDS011;61314;53.444;9.902;2023-04-06T11:21:33;11.67;;;6.13;;
3997;SDS011;61314;53.444;9.902;2023-04-06T11:24:10;8.20;;;6.07;;
3997;SDS011;61314;53.444;9.902;2023-04-06T11:26:43;6.57;;;5.97;;
3997;SDS011;61314;53.444;9.902;2023-04-06T11:29:11;11.10;;;6.00;;
3997;SDS011;61314;53.444;9.902;2023-04-06T11:31:42;12.53;;;6.43;;
3997;SDS011;61314;53.444;9.902;2023-04-06T11:34:15;7.90;;;6.87;;
3997;SDS011;61314;53.444;9.902;2023-04-06T11:36:43;9.30;;;6.13;;
3997;SDS011;61314;53.444;9.902;2023-04-06T11:39:11;11.80;;;6.63;;
3997;SDS011;61314;53.444;9.902;2023-04-06T11:41:39;7.37;;;6.47;;
3997;SDS011;61314;53.444;9.902;2023-04-06T11:44:07;7.23;;;6.00;;
3997;SDS011;61314;53.444;9.902;2023-04-06T11:46:34;8.30;;;7.43;;
3997;SDS011;61314;53.444;9.902;2023-04-06T11:49:01;12.90;;;8.73;;
3997;SDS011;61314;53.444;9.902;2023-04-06T11:51:29;10.20;;;7.37;;
3997;SDS011;61314;53.444;9.902;2023-04-06T11:53:56;7.60;;;6.77;;
3997;SDS011;61314;53.444;9.902;2023-04-06T11:56:24;9.40;;;6.50;;
3997;SDS011;61314;53.444;9.902;2023-04-06T11:58:51;9.30;;;6.83;;
3997;SDS011;61314;53.444;9.902;2023-04-06T12:01:18;12.33;;;8.47;;
3997;SDS011;61314;53.444;9.902;2023-04-06T12:03:45;11.40;;;7.43;;
3997;SDS011;61314;53.444;9.902;2023-04-06T12:06:13;8.17;;;6.90;;
3997;SDS011;61314;53.444;9.902;2023-04-06T12:08:39;16.03;;;9.13;;
3997;SDS011;61314;53.444;9.902;2023-04-06T12:11:06;10.53;;;8.43;;
3997;SDS011;61314;53.444;9.902;2023-04-06T12:13:33;10.53;;;7.40;;
3997;SDS011;61314;53.444;9.902;2023-04-06T12:16:00;14.20;;;8.80;;
3997;SDS011;61314;53.444;9.902;2023-04-06T12:18:27;8.77;;;7.73;;
3997;SDS011;61314;53.444;9.902;2023-04-06T12:20:54;10.00;;;8.60;;
3997;SDS011;61314;53.444;9.902;2023-04-06T12:23:21;10.70;;;8.70;;
3997;SDS011;61314;53.444;9.902;2023-04-06T12:25:48;12.33;;;8.73;;
3997;SDS011;61314;53.444;9.902;2023-04-06T12:28:15;10.63;;;8.80;;
3997;SDS011;61314;53.444;9.902;2023-04-06T12:30:42;11.50;;;8.73;;
3997;SDS011;61314;53.444;9.902;2023-04-06T12:33:09;9.63;;;8.50;;
3997;SDS011;61314;53.444;9.902;2023-04-06T12:35:36;13.47;;;8.40;;
3997;SDS011;61314;53.444;9.902;2023-04-06T12:38:04;9.93;;;8.33;;
3997;SDS011;61314;53.444;9.902;2023-04-06T12:40:35;9.40;;;8.40;;
3997;SDS011;61314;53.444;9.902;2023-04-06T12:43:02;12.43;;;9.50;;
3997;SDS011;61314;53.444;9.902;2023-04-06T12:45:32;13.30;;;8.20;;
3997;SDS011;61314;53.444;9.902;2023-04-06T12:47:59;9.80;;;8.20;;
3997;SDS011;61314;53.444;9.902;2023-04-06T12:50:27;10.33;;;7.13;;
3997;SDS011;61314;53.444;9.902;2023-04-06T12:52:54;11.87;;;9.80;;
3997;SDS011;61314;53.444;9.902;2023-04-06T12:55:21;14.17;;;9.27;;
3997;SDS011;61314;53.444;9.902;2023-04-06T12:57:48;9.83;;;8.10;;
3997;SDS011;61314;53.444;9.902;2023-04-06T13:00:15;8.77;;;7.97;;
3997;SDS011;61314;53.444;9.902;2023-04-06T13:02:43;12.00;;;8.40;;
3997;SDS011;61314;53.444;9.902;2023-04-06T13:05:13;13.23;;;8.10;;
3997;SDS011;61314;53.444;9.902;2023-04-06T13:07:45;10.17;;;7.70;;
3997;SDS011;61314;53.444;9.902;2023-04-06T13:10:12;10.40;;;8.53;;
3997;SDS011;61314;53.444;9.902;2023-04-06T13:12:39;14.30;;;9.47;;
3997;SDS011;61314;53.444;9.902;2023-04-06T13:15:06;9.90;;;8.37;;
3997;SDS011;61314;53.444;9.902;2023-04-06T13:17:34;21.33;;;9.30;;
3997;SDS011;61314;53.444;9.902;2023-04-06T13:20:01;10.63;;;8.67;;
3997;SDS011;61314;53.444;9.902;2023-04-06T13:22:29;14.57;;;8.00;;
3997;SDS011;61314;53.444;9.902;2023-04-06T13:24:56;9.20;;;6.90;;
3997;SDS011;61314;53.444;9.902;2023-04-06T13:27:23;9.20;;;7.70;;
3997;SDS011;61314;53.444;9.902;2023-04-06T13:29:50;9.63;;;7.53;;
3997;SDS011;61314;53.444;9.902;2023-04-06T13:32:17;7.90;;;7.10;;
3997;SDS011;61314;53.444;9.902;2023-04-06T13:34:44;10.27;;;6.80;;
3997;SDS011;61314;53.444;9.902;2023-04-06T13:37:12;12.33;;;8.10;;
3997;SDS011;61314;53.444;9.902;2023-04-06T13:39:39;7.20;;;6.50;;
3997;SDS011;61314;53.444;9.902;2023-04-06T13:42:06;10.30;;;7.80;;
3997;SDS011;61314;53.444;9.902;2023-04-06T13:44:33;12.83;;;7.60;;
3997;SDS011;61314;53.444;9.902;2023-04-06T13:47:00;9.73;;;6.90;;
3997;SDS011;61314;53.444;9.902;2023-04-06T13:49:27;8.70;;;6.87;;
3997;SDS011;61314;53.444;9.902;2023-04-06T13:51:54;8.40;;;7.07;;
3997;SDS011;61314;53.444;9.902;2023-04-06T13:54:21;7.53;;;6.40;;
3997;SDS011;61314;53.444;9.902;2023-04-06T13:56:48;8.60;;;6.90;;
3997;SDS011;61314;53.444;9.902;2023-04-06T13:59:15;7.20;;;6.57;;
3997;SDS011;61314;53.444;9.902;2023-04-06T14:01:43;8.83;;;6.80;;
3997;SDS011;61314;53.444;9.902;2023-04-06T14:04:10;11.90;;;6.60;;
3997;SDS011;61314;53.444;9.902;2023-04-06T14:06:37;7.50;;;6.63;;
3997;SDS011;61314;53.444;9.902;2023-04-06T14:09:04;7.37;;;6.67;;
3997;SDS011;61314;53.444;9.902;2023-04-06T14:11:31;9.83;;;8.10;;
3997;SDS011;61314;53.444;9.902;2023-04-06T14:13:58;9.83;;;7.70;;
3997;SDS011;61314;53.444;9.902;2023-04-06T14:16:26;10.37;;;5.90;;
3997;SDS011;61314;53.444;9.902;2023-04-06T14:18:53;7.07;;;6.33;;
3997;SDS011;61314;53.444;9.902;2023-04-06T14:21:21;6.50;;;5.53;;
3997;SDS011;61314;53.444;9.902;2023-04-06T14:23:48;5.83;;;5.20;;
3997;SDS011;61314;53.444;9.902;2023-04-06T14:26:15;8.23;;;5.30;;
3997;SDS011;61314;53.444;9.902;2023-04-06T14:28:42;7.27;;;5.73;;
3997;SDS011;61314;53.444;9.902;2023-04-06T14:31:10;6.77;;;6.07;;
3997;SDS011;61314;53.444;9.902;2023-04-06T14:33:38;8.70;;;6.30;;
3997;SDS011;61314;53.444;9.902;2023-04-06T14:36:06;7.70;;;6.00;;
3997;SDS011;61314;53.444;9.902;2023-04-06T14:38:34;6.77;;;6.17;;
3997;SDS011;61314;53.444;9.902;2023-04-06T14:41:01;11.33;;;6.97;;
3997;SDS011;61314;53.444;9.902;2023-04-06T14:43:28;8.90;;;8.00;;
3997;SDS011;61314;53.444;9.902;2023-04-06T14:45:59;11.30;;;7.00;;
3997;SDS011;61314;53.444;9.902;2023-04-06T14:48:26;14.70;;;9.43;;
3997;SDS011;61314;53.444;9.902;2023-04-06T14:50:54;13.00;;;9.17;;
3997;SDS011;61314;53.444;9.902;2023-04-06T14:53:22;24.60;;;14.30;;
3997;SDS011;61314;53.444;9.902;2023-04-06T14:55:49;11.17;;;8.17;;
3997;SDS011;61314;53.444;9.902;2023-04-06T14:58:19;11.20;;;7.03;;
3997;SDS011;61314;53.444;9.902;2023-04-06T15:00:47;9.93;;;7.77;;